小松 の空港の天気 - METARとTAF

小松飛行場 ( RJNK / KMQ ) - 石川県小松市
飛行場実況気象(Metar)
観測時間07/07 20:00 JST (07/07 11:00 UTC)
風向・風速西南西 6m/s
視程8000m
天気現象弱いしゅう雨
少しの雲 雲底高度 610m
全天の8割程度の雲 雲底高度 910m
全天の8割程度の雲 雲底高度 1520m
気温24℃
湿度94%
気圧1006hPa
METARRJNK 071100Z 24011KT 8000 -SHRA FEW020 BKN030 BKN050 24/23 Q1006
過去の天気等 Google飛行場航空写真 Wunderground天気予報

過去48時間のMETAR

飛行場予報(TAF)
発表時間: 7/07 20:07 JST (7/07 11:07 UTC)
予報対象時間: 7日21時 JST ~ 9日3時 JST
風向・風速南南西 4m/s
視程8000m
天気現象弱いしゅう雨
少しの雲 雲底高度 300m
全天の8割程度の雲 雲底高度 910m
7日21時 JST ~ 8日3時 JST に一時的に
視程4000m
天気現象しゅう雨 もや
8日5時 JST ~ 8日7時 JST に徐々に
風向・風速西北西 5m/s
8日6時 JST ~ 8日12時 JST に一時的に
視程3000m
天気現象雷雨 もや
少しの雲 雲底高度 120m
全天の8割程度の雲 雲底高度 240m
少しの積乱雲 雲底高度 610m
8日12時 JST ~ 8日15時 JST に一時的に
視程4000m
天気現象しゅう雨 もや
8日21時 JST ~ 8日24時 JST に徐々に
風向・風速東南東 2m/s
TAF RJNK 071107Z 0712/0818 20008KT 8000 -SHRA FEW010 BKN030
TEMPO 0712/0718 4000 SHRA BR
BECMG 0720/0722 30010KT
TEMPO 0721/0803 3000 TSRA BR FEW004 BKN008 FEW020CB
TEMPO 0803/0806 4000 SHRA BR
BECMG 0812/0815 11004KT
日本の空港のMETAR・TAFへのリンク

RJTT 東京国際空港
RJAA 新東京国際空港
RJBB 関西国際空港
RJOO 大阪空港
RJGG 中部国際空港
RJCC 新千歳空港
RJFF 福岡空港
ROAH 那覇空港


RJEC 旭川空港
RJCH 函館空港
RJCK 釧路空港
RJCM 女満別空港
RJCB 帯広空港
RJSA 青森空港
RJSS 仙台空港
RJSK 秋田空港
RJSF 福島空港
RJAH 茨城空港
RJSN 新潟空港
RJNT 富山空港
RJNK 小松飛行場
RJNS 静岡空港
RJOH 美保飛行場
RJOC 出雲空港
RJOB 岡山空港
RJOA 広島空港
RJOI 岩国飛行場
RJOT 高松空港
RJOM 松山空港
RJOK 高知空港
RJFR 北九州空港
RJFT 熊本空港
RJFU 長崎空港
RJFS 佐賀空港
RJFO 大分空港
RJFM 宮崎空港
RJFK 鹿児島空港
ROIG 石垣島空港
RJTY 横田飛行場
ROTM 普天間飛行場
RODN 嘉手納飛行場